Time;durP1;ratioP1;P1;durP2;ratioP2;P2;SDS_P1;SDS_P2;PMS_P1;PMS_P2;Temp;Humidity;BMP_temperature;BMP_pressure;BME280_temperature;BME280_humidity;BME280_pressure;Samples;Min_cycle;Max_cycle;Signal;HPM_P1;HPM_P2
2022/01/03 00:02:51;;;;;;;4.60;1.70;;;;;;;9.70;56.36;101717.58;1716379;83;21026;-52
2022/01/03 00:05:20;;;;;;;2.33;1.30;;;;;;;9.71;56.53;101713.22;1703370;83;21041;-52
2022/01/03 00:07:46;;;;;;;3.00;1.12;;;;;;;9.72;56.70;101707.17;1713618;83;21112;-52
2022/01/03 00:10:15;;;;;;;1.98;1.10;;;;;;;9.71;56.81;101697.20;1683900;83;21550;-54
2022/01/03 00:12:43;;;;;;;5.75;1.75;;;;;;;9.73;56.91;101705.86;1702601;83;21026;-52
2022/01/03 00:15:14;;;;;;;3.52;1.20;;;;;;;9.75;56.94;101711.91;1704162;83;21073;-52
2022/01/03 00:17:41;;;;;;;2.08;1.17;;;;;;;9.78;56.98;101711.92;1631106;86;21083;-52
2022/01/03 00:20:12;;;;;;;3.00;1.55;;;;;;;9.79;56.95;101701.94;1679843;84;21575;-52
2022/01/03 00:23:04;;;;;;;3.42;1.60;;;;;;;9.80;56.99;101697.18;1636747;86;21534;-53
2022/01/03 00:25:32;;;;;;;3.27;1.40;;;;;;;9.83;57.01;101694.98;1696166;83;21013;-52
2022/01/03 00:28:15;;;;;;;4.28;1.37;;;;;;;9.82;57.16;101689.37;1708282;83;21505;-53
2022/01/03 00:30:44;;;;;;;2.37;1.00;;;;;;;9.84;57.17;101680.70;1704363;83;21113;-52
2022/01/03 00:33:11;;;;;;;2.62;1.30;;;;;;;9.86;57.28;101665.09;1699276;83;21025;-52
2022/01/03 00:35:40;;;;;;;3.42;1.30;;;;;;;9.90;57.26;101654.23;1711106;83;21046;-53
2022/01/03 00:38:12;;;;;;;4.25;1.22;;;;;;;9.91;57.32;101645.15;1713235;83;22015;-52
2022/01/03 00:40:40;;;;;;;2.98;1.00;;;;;;;9.95;57.32;101632.98;1710250;83;21632;-53
2022/01/03 00:43:07;;;;;;;3.17;1.55;;;;;;;9.97;57.41;101623.45;1714398;83;20994;-52
2022/01/03 00:45:34;;;;;;;4.05;2.05;;;;;;;9.98;57.48;101606.95;1706810;83;21566;-53
2022/01/03 00:48:06;;;;;;;4.90;1.72;;;;;;;10.01;57.56;101586.16;1701169;83;21029;-52
2022/01/03 00:50:33;;;;;;;3.98;1.32;;;;;;;10.03;57.66;101579.20;1702986;83;21566;-52
2022/01/03 00:52:59;;;;;;;6.33;2.12;;;;;;;10.05;57.83;101563.16;1646979;86;21488;-54
2022/01/03 00:55:27;;;;;;;4.40;1.47;;;;;;;10.06;57.95;101564.87;1627840;86;21053;-53
2022/01/03 00:58:07;;;;;;;4.92;1.52;;;;;;;10.06;58.08;101550.56;1710713;83;21037;-52
2022/01/03 01:00:40;;;;;;;6.00;1.67;;;;;;;10.09;58.17;101551.86;1756490;80;21061;-52
2022/01/03 01:03:19;;;;;;;4.85;1.70;;;;;;;10.09;58.39;101554.03;1752717;80;21041;-52
2022/01/03 01:05:50;;;;;;;3.87;1.65;;;;;;;10.11;58.47;101561.84;1762297;80;20967;-52
2022/01/03 01:08:21;;;;;;;3.70;1.47;;;;;;;10.15;58.59;101567.45;1757092;80;20994;-52
2022/01/03 01:10:50;;;;;;;5.15;1.90;;;;;;;10.17;58.76;101569.17;1763761;80;21003;-53
2022/01/03 01:13:18;;;;;;;6.20;1.65;;;;;;;10.20;58.91;101560.50;1753596;80;21074;-53
2022/01/03 01:15:45;;;;;;;2.52;1.47;;;;;;;10.25;59.08;101565.20;1749391;81;21049;-53
2022/01/03 01:18:12;;;;;;;7.08;1.67;;;;;;;10.29;59.12;101568.20;1762354;80;21035;-53
2022/01/03 01:20:39;;;;;;;4.55;1.57;;;;;;;10.31;59.28;101567.33;1759130;80;20967;-53
2022/01/03 01:23:09;;;;;;;3.17;1.70;;;;;;;10.34;59.35;101547.81;1754727;80;21039;-53
2022/01/03 01:28:10;;;;;;;6.78;1.92;;;;;;;10.39;59.61;101525.20;1750646;80;21038;-53
2022/01/03 01:30:37;;;;;;;5.67;2.05;;;;;;;10.41;59.79;101526.05;1752640;80;21011;-53
2022/01/03 01:33:08;;;;;;;6.08;1.95;;;;;;;10.45;59.86;101532.08;1753011;80;21029;-53
2022/01/03 01:35:50;;;;;;;7.63;3.37;;;;;;;10.49;59.94;101523.37;1759665;80;21569;-53
2022/01/03 01:38:22;;;;;;;10.10;1.92;;;;;;;10.52;60.04;101502.54;1762529;80;21495;-53
2022/01/03 01:40:56;;;;;;;6.20;2.30;;;;;;;10.55;60.14;101479.10;1763225;80;21006;-53
2022/01/03 01:43:32;;;;;;;9.40;2.52;;;;;;;10.59;60.26;101454.77;1756844;80;21017;-53
2022/01/03 01:45:59;;;;;;;6.12;2.35;;;;;;;10.59;60.36;101437.86;1686921;83;21081;-53
2022/01/03 01:48:26;;;;;;;5.72;2.95;;;;;;;10.61;60.48;101421.78;1653944;85;21504;-53
2022/01/03 01:50:55;;;;;;;5.53;2.15;;;;;;;10.63;60.65;101429.13;1692009;83;21531;-53
2022/01/03 01:53:24;;;;;;;6.28;2.37;;;;;;;10.65;60.74;101419.56;1689046;84;21030;-53
2022/01/03 01:55:55;;;;;;;5.42;2.47;;;;;;;10.65;60.87;101423.00;1700025;83;20982;-55
2022/01/03 01:58:36;;;;;;;7.53;3.75;;;;;;;10.66;60.99;101432.98;1698978;84;21029;-54
2022/01/03 02:01:07;;;;;;;6.65;3.20;;;;;;;10.69;61.08;101426.46;1701530;83;21090;-54
2022/01/03 02:03:42;;;;;;;8.65;3.27;;;;;;;10.71;61.15;101415.59;1700947;84;21050;-54
2022/01/03 02:06:40;;;;;;;8.25;2.77;;;;;;;10.73;61.20;101413.83;1618051;88;21544;-55
2022/01/03 02:09:10;;;;;;;5.83;3.45;;;;;;;10.73;61.35;101404.72;1628514;88;21101;-54
2022/01/03 02:11:49;;;;;;;9.13;3.33;;;;;;;10.75;61.39;101404.26;1620365;87;21069;-55
2022/01/03 02:14:17;;;;;;;6.60;3.27;;;;;;;10.80;61.45;101403.75;1589447;89;21591;-54
2022/01/03 02:16:46;;;;;;;7.33;3.72;;;;;;;10.83;61.38;101395.05;1585878;89;21046;-55
2022/01/03 02:19:13;;;;;;;9.18;3.65;;;;;;;10.85;61.45;101377.23;1592675;89;21093;-56
2022/01/03 02:21:40;;;;;;;6.67;3.70;;;;;;;10.86;61.48;101351.59;1593649;89;21089;-54
2022/01/03 02:24:08;;;;;;;9.38;4.05;;;;;;;10.87;61.53;101339.02;1593736;89;21556;-55
2022/01/03 02:26:38;;;;;;;9.58;4.60;;;;;;;10.89;61.57;101324.67;1585808;89;21138;-54
2022/01/03 02:29:05;;;;;;;9.80;4.33;;;;;;;10.89;61.63;101309.91;1591402;89;21090;-55
2022/01/03 02:31:33;;;;;;;7.17;3.75;;;;;;;10.91;61.77;101300.34;1591941;89;21134;-54
2022/01/03 02:36:31;;;;;;;10.70;3.75;;;;;;;10.94;61.82;101261.22;1507611;94;21644;-55
2022/01/03 02:38:57;;;;;;;9.28;3.50;;;;;;;10.94;61.95;101252.57;1497981;94;21102;-55
2022/01/03 02:41:24;;;;;;;6.72;4.10;;;;;;;10.95;61.98;101252.97;1494215;95;21190;-54
2022/01/03 02:43:52;;;;;;;8.40;4.53;;;;;;;10.96;62.04;101244.30;1537383;90;21123;-55
2022/01/03 02:46:18;;;;;;;11.15;4.03;;;;;;;10.98;62.14;101236.02;1578554;90;21101;-54
2022/01/03 02:48:46;;;;;;;9.85;3.72;;;;;;;10.98;62.26;101232.98;1547991;92;21101;-55
2022/01/03 02:51:12;;;;;;;9.33;3.90;;;;;;;11.00;62.28;101237.72;1526910;93;21595;-55
2022/01/03 02:53:39;;;;;;;12.25;4.05;;;;;;;11.01;62.34;101230.31;1533520;92;21129;-55
2022/01/03 02:56:07;;;;;;;8.83;3.22;;;;;;;11.04;62.37;101231.58;1524298;92;21670;-54
2022/01/03 02:58:33;;;;;;;8.75;3.50;;;;;;;11.05;62.34;101217.66;1566880;90;21077;-55
2022/01/03 03:01:00;;;;;;;11.10;3.80;;;;;;;11.04;62.45;101223.77;1554611;91;21089;-54
2022/01/03 03:03:38;;;;;;;6.62;2.87;;;;;;;11.04;62.52;101223.77;1546724;90;21571;-54
2022/01/03 03:06:05;;;;;;;6.83;3.10;;;;;;;11.04;62.61;101210.75;1558667;90;21512;-54
2022/01/03 03:08:32;;;;;;;14.23;3.87;;;;;;;11.03;62.72;101201.20;1552614;92;21623;-54
2022/01/03 03:11:00;;;;;;;15.65;3.90;;;;;;;11.05;62.77;101199.42;1561443;91;21138;-54
2022/01/03 03:13:26;;;;;;;9.03;4.25;;;;;;;11.07;62.72;101185.94;1598431;88;21087;-54
2022/01/03 03:15:53;;;;;;;11.15;3.67;;;;;;;11.09;62.75;101172.88;1620254;88;21551;-54
2022/01/03 03:18:21;;;;;;;12.47;3.58;;;;;;;11.10;62.64;101168.97;1601584;88;21169;-54
2022/01/03 03:20:49;;;;;;;11.95;4.10;;;;;;;11.11;62.71;101166.77;1605607;87;23052;-54
2022/01/03 03:23:18;;;;;;;14.70;4.55;;;;;;;11.13;62.69;101167.59;1603913;88;21059;-54
2022/01/03 03:25:45;;;;;;;13.43;4.30;;;;;;;11.14;62.66;101176.28;1611645;88;21047;-54
2022/01/03 03:28:14;;;;;;;9.28;4.75;;;;;;;11.16;62.65;101156.28;1566753;89;21595;-54
2022/01/03 03:30:47;;;;;;;11.30;5.55;;;;;;;11.17;62.62;101158.01;1561074;91;21087;-55
2022/01/03 03:33:22;;;;;;;13.55;5.62;;;;;;;11.17;62.61;101141.91;1531519;92;21224;-55
2022/01/03 03:35:51;;;;;;;13.72;5.83;;;;;;;11.17;62.62;101145.82;1536446;92;21089;-54
2022/01/03 03:38:19;;;;;;;13.45;5.37;;;;;;;11.17;62.69;101136.70;1538473;92;21094;-54
2022/01/03 03:40:48;;;;;;;13.43;5.12;;;;;;;11.20;62.61;101139.70;1533750;92;21049;-54
2022/01/03 03:43:15;;;;;;;11.78;5.25;;;;;;;11.20;62.58;101139.27;1525894;93;21144;-54
2022/01/03 03:45:42;;;;;;;11.48;5.42;;;;;;;11.23;62.57;101125.34;1522240;94;21131;-53
2022/01/03 03:48:09;;;;;;;15.23;6.35;;;;;;;11.24;62.55;101105.77;1562593;91;21564;-54
2022/01/03 03:50:36;;;;;;;17.20;6.50;;;;;;;11.26;62.50;101114.41;1558589;91;21586;-54
2022/01/03 03:53:04;;;;;;;13.30;7.22;;;;;;;11.29;62.40;101118.23;1568496;91;21110;-54
2022/01/03 03:58:01;;;;;;;11.25;6.90;;;;;;;11.30;62.41;101152.54;1525827;93;21597;-54
2022/01/03 04:00:28;;;;;;;12.82;7.58;;;;;;;11.33;62.30;101182.42;1506209;92;21076;-54
2022/01/03 04:02:58;;;;;;;14.73;7.58;;;;;;;11.33;62.22;101196.75;1532077;92;21587;-54
2022/01/03 04:05:25;;;;;;;12.58;7.33;;;;;;;11.32;62.15;101213.29;1530880;92;21138;-54
2022/01/03 04:07:54;;;;;;;11.08;7.15;;;;;;;11.32;61.96;101215.89;1578761;90;21073;-54
2022/01/03 04:10:21;;;;;;;10.23;7.28;;;;;;;11.32;61.63;101231.53;1582115;89;21585;-54
2022/01/03 04:12:49;;;;;;;13.20;7.22;;;;;;;11.33;61.52;101220.20;1572348;90;21558;-54
2022/01/03 04:15:17;;;;;;;10.53;7.35;;;;;;;11.31;61.44;101173.78;1576249;90;21117;-53
2022/01/03 04:17:43;;;;;;;11.70;8.50;;;;;;;11.31;61.54;101154.23;1576886;90;21082;-56
2022/01/03 04:20:15;;;;;;;12.18;8.38;;;;;;;11.32;61.50;101153.37;1576115;90;21034;-54
2022/01/03 04:22:42;;;;;;;13.15;8.00;;;;;;;11.32;61.53;101148.16;1575614;91;21082;-54
2022/01/03 04:25:10;;;;;;;12.95;8.48;;;;;;;11.32;61.54;101138.17;1574519;91;21093;-54
2022/01/03 04:27:37;;;;;;;17.95;9.63;;;;;;;11.30;61.72;101152.54;1576830;91;21643;-54
2022/01/03 04:30:06;;;;;;;13.32;8.85;;;;;;;11.30;61.67;101168.17;1605341;86;21486;-55
2022/01/03 04:32:34;;;;;;;12.93;8.70;;;;;;;11.31;61.74;101162.52;1643893;86;21106;-54
2022/01/03 04:35:01;;;;;;;12.90;8.53;;;;;;;11.31;61.74;101163.36;1635564;87;21449;-54
2022/01/03 04:37:28;;;;;;;14.25;8.88;;;;;;;11.32;61.68;101174.21;1640973;87;21599;-54
2022/01/03 04:39:57;;;;;;;13.40;9.43;;;;;;;11.31;61.63;101175.08;1636752;87;21086;-54
2022/01/03 04:42:23;;;;;;;10.72;8.48;;;;;;;11.33;61.49;101165.49;1639109;87;21011;-54
2022/01/03 04:44:50;;;;;;;13.55;8.85;;;;;;;11.33;61.48;101158.14;1639540;87;21578;-55
2022/01/03 04:47:17;;;;;;;15.78;10.28;;;;;;;11.32;61.36;101151.20;1639661;87;21090;-54
2022/01/03 04:49:43;;;;;;;16.35;9.75;;;;;;;11.31;61.45;101127.35;1639688;87;21526;-54
2022/01/03 04:52:10;;;;;;;15.88;9.95;;;;;;;11.31;61.32;101112.55;1634125;87;21047;-54
2022/01/03 04:54:38;;;;;;;15.70;10.45;;;;;;;11.31;61.38;101116.47;1665242;83;21014;-54
2022/01/03 04:57:05;;;;;;;16.57;10.43;;;;;;;11.30;61.28;101103.04;1716861;82;21043;-54
2022/01/03 04:59:33;;;;;;;16.15;9.55;;;;;;;11.29;61.37;101103.91;1672418;83;21101;-55
2022/01/03 05:02:03;;;;;;;12.93;10.32;;;;;;;11.27;61.30;101104.39;1758138;80;21011;-54
2022/01/03 05:04:28;;;;;;;13.22;9.58;;;;;;;11.24;61.33;101090.13;1763413;80;20998;-54
2022/01/03 05:06:55;;;;;;;13.25;9.65;;;;;;;11.23;61.21;101088.41;1766939;80;21035;-54
2022/01/03 05:09:22;;;;;;;17.02;10.53;;;;;;;11.18;61.19;101095.89;1759059;81;21033;-54
2022/01/03 05:11:48;;;;;;;12.98;9.75;;;;;;;11.15;61.13;101095.50;1763884;80;21030;-55
2022/01/03 05:14:16;;;;;;;14.78;9.95;;;;;;;11.14;61.14;101101.62;1758329;80;21094;-54
2022/01/03 05:16:43;;;;;;;14.25;9.75;;;;;;;11.12;61.00;101095.58;1765341;80;21053;-54
2022/01/03 05:19:10;;;;;;;14.70;11.12;;;;;;;11.08;60.94;101080.90;1768089;80;21077;-55
2022/01/03 05:21:37;;;;;;;15.72;11.48;;;;;;;11.04;61.04;101059.70;1754956;80;20995;-55
2022/01/03 05:24:05;;;;;;;15.50;12.13;;;;;;;11.02;61.02;101044.56;1761064;80;20994;-54
2022/01/03 05:26:32;;;;;;;18.17;12.88;;;;;;;11.02;61.04;101034.58;1750560;81;21033;-56
2022/01/03 05:29:00;;;;;;;17.32;12.37;;;;;;;10.98;61.06;101042.91;1754438;80;21061;-54
2022/01/03 05:31:27;;;;;;;18.85;12.63;;;;;;;10.95;61.01;101042.94;1753887;80;21531;-54
2022/01/03 05:33:55;;;;;;;15.83;12.33;;;;;;;10.89;61.12;101037.85;1757479;80;21534;-55
2022/01/03 05:36:21;;;;;;;16.30;12.40;;;;;;;10.86;61.26;101037.89;1752932;80;21019;-54
2022/01/03 05:38:50;;;;;;;19.42;13.10;;;;;;;10.86;61.15;101033.98;1753987;80;21518;-55
2022/01/03 05:41:16;;;;;;;16.85;12.37;;;;;;;10.79;61.27;101015.48;1754209;80;21542;-54
2022/01/03 05:43:44;;;;;;;16.25;11.83;;;;;;;10.74;61.24;101008.19;1762596;80;21500;-55
2022/01/03 05:46:12;;;;;;;16.37;12.10;;;;;;;10.72;61.29;100999.55;1768163;80;21041;-55
2022/01/03 05:48:41;;;;;;;15.72;11.75;;;;;;;10.70;61.24;100988.74;1762530;80;21042;-54
2022/01/03 05:51:09;;;;;;;14.45;11.83;;;;;;;10.67;61.20;100993.59;1752486;80;21085;-56
2022/01/03 05:53:36;;;;;;;14.18;11.57;;;;;;;10.65;61.21;101001.87;1758123;80;21039;-54
2022/01/03 05:56:04;;;;;;;14.07;11.18;;;;;;;10.62;61.15;100996.70;1757517;80;21049;-55
2022/01/03 05:58:32;;;;;;;13.53;11.40;;;;;;;10.60;61.22;100995.88;1752763;80;21096;-55
2022/01/03 06:01:01;;;;;;;14.55;11.75;;;;;;;10.58;61.35;101004.15;1753036;80;21066;-55
2022/01/03 06:03:34;;;;;;;13.03;10.70;;;;;;;10.59;61.36;100998.08;1763129;80;21569;-55
2022/01/03 06:08:25;;;;;;;15.75;11.95;;;;;;;10.60;61.18;100988.93;1750461;80;21484;-54
2022/01/03 06:10:52;;;;;;;13.03;10.98;;;;;;;10.59;61.12;100979.86;1767101;80;21042;-55
2022/01/03 06:13:22;;;;;;;15.32;11.60;;;;;;;10.59;61.20;100979.86;1682065;83;21122;-55
2022/01/03 06:15:50;;;;;;;15.98;12.75;;;;;;;10.59;61.15;100979.86;1660679;85;21126;-56
2022/01/03 06:18:18;;;;;;;15.90;12.03;;;;;;;10.56;61.11;100973.39;1657508;85;21094;-54
2022/01/03 06:20:48;;;;;;;16.82;13.18;;;;;;;10.56;61.26;100968.19;1665462;85;21058;-55
2022/01/03 06:23:18;;;;;;;15.05;12.00;;;;;;;10.57;61.37;100968.16;1671333;85;21472;-55
2022/01/03 06:25:45;;;;;;;16.35;11.95;;;;;;;10.60;61.31;100971.16;1633229;87;21069;-54
2022/01/03 06:28:14;;;;;;;15.30;11.80;;;;;;;10.60;61.23;100969.85;1671130;83;21569;-55
2022/01/03 06:30:42;;;;;;;17.10;13.05;;;;;;;10.60;61.29;100980.26;1688844;83;21059;-55
2022/01/03 06:33:11;;;;;;;16.02;12.25;;;;;;;10.59;61.31;100994.17;1697658;83;21067;-55
2022/01/03 06:35:39;;;;;;;16.02;12.80;;;;;;;10.79;60.92;100998.56;1695391;83;21033;-55
2022/01/03 06:38:05;;;;;;;14.73;11.90;;;;;;;10.96;60.34;101008.22;1696543;83;21067;-55
2022/01/03 06:40:35;;;;;;;16.75;12.63;;;;;;;10.99;60.04;101008.14;1705610;83;21051;-55
2022/01/03 06:43:03;;;;;;;19.17;12.55;;;;;;;10.94;60.21;101000.85;1688248;83;21005;-55
2022/01/03 06:45:30;;;;;;;19.67;13.22;;;;;;;10.69;60.85;100994.85;1702021;83;21090;-55
2022/01/03 06:47:58;;;;;;;17.35;12.82;;;;;;;10.56;61.29;100989.01;1694245;83;21054;-55
2022/01/03 06:50:28;;;;;;;17.23;13.45;;;;;;;10.53;61.47;100987.31;1645121;87;21045;-55
2022/01/03 06:52:54;;;;;;;16.20;12.98;;;;;;;10.54;61.43;100989.48;1664382;85;21082;-55
2022/01/03 06:55:21;;;;;;;16.37;12.05;;;;;;;10.51;61.48;100993.42;1655579;84;21053;-55
2022/01/03 06:57:49;;;;;;;17.42;13.18;;;;;;;10.52;61.36;100993.85;1670332;85;21565;-55
2022/01/03 07:00:16;;;;;;;14.83;12.37;;;;;;;10.52;61.41;100992.12;1656479;85;21038;-55
2022/01/03 07:02:43;;;;;;;17.15;13.20;;;;;;;10.53;61.27;100983.88;1663713;84;21074;-55
2022/01/03 07:05:12;;;;;;;16.57;12.50;;;;;;;10.54;61.40;100981.67;1659336;85;21079;-55
2022/01/03 07:07:38;;;;;;;15.13;12.37;;;;;;;10.55;61.24;100966.49;1612976;88;21053;-55
2022/01/03 07:10:06;;;;;;;18.02;13.45;;;;;;;10.54;61.10;100962.16;1632286;88;21653;-55
2022/01/03 07:12:34;;;;;;;16.12;13.38;;;;;;;10.51;61.01;100955.70;1615203;87;21110;-55
2022/01/03 07:20:13;;;;;;;27.65;20.48;;;;;;;10.52;61.16;100977.81;1661587;85;21611;-55
2022/01/03 07:22:40;;;;;;;25.68;19.62;;;;;;;10.55;61.06;100984.70;1681787;84;22109;-55
2022/01/03 07:25:29;;;;;;;23.38;17.27;;;;;;;10.55;60.99;100976.91;1689433;84;21150;-55
2022/01/03 07:27:55;;;;;;;19.65;14.93;;;;;;;10.55;60.90;100984.70;1570887;90;21091;-55
2022/01/03 07:30:22;;;;;;;16.77;13.15;;;;;;;10.54;60.71;100985.58;1567703;90;21108;-55
2022/01/03 07:32:48;;;;;;;16.10;13.03;;;;;;;10.54;60.72;100994.69;1568781;90;21548;-55
2022/01/03 07:35:16;;;;;;;18.85;13.18;;;;;;;10.54;60.73;100989.05;1557521;89;21324;-55
2022/01/03 07:37:43;;;;;;;16.17;12.73;;;;;;;10.55;60.63;100983.41;1576259;90;21107;-55
2022/01/03 07:40:11;;;;;;;16.57;12.73;;;;;;;10.56;60.48;100985.11;1556616;90;21120;-54
2022/01/03 07:42:37;;;;;;;18.50;13.70;;;;;;;10.56;60.29;100973.39;1560574;91;21075;-55
2022/01/03 07:45:06;;;;;;;18.55;13.80;;;;;;;10.54;60.16;100969.97;1566833;90;21131;-55
2022/01/03 07:47:32;;;;;;;17.10;12.40;;;;;;;10.53;60.28;100970.87;1560825;90;21120;-55
2022/01/03 07:49:59;;;;;;;17.30;13.28;;;;;;;10.54;60.09;100969.97;1563104;90;21087;-55
2022/01/03 07:52:25;;;;;;;16.80;13.00;;;;;;;10.54;60.01;100969.97;1566341;89;21146;-55
2022/01/03 07:54:52;;;;;;;16.65;13.03;;;;;;;10.54;59.95;100960.42;1578962;90;21075;-54
2022/01/03 07:57:19;;;;;;;22.05;16.30;;;;;;;10.54;59.88;100949.15;1549233;91;21127;-55
2022/01/03 07:59:46;;;;;;;17.60;14.45;;;;;;;10.54;59.73;100947.85;1572884;90;21159;-54
2022/01/03 08:02:13;;;;;;;17.02;14.03;;;;;;;10.53;59.76;100948.28;1565630;90;21107;-54
2022/01/03 08:04:39;;;;;;;17.82;14.38;;;;;;;10.56;59.92;100941.73;1616799;83;21022;-54
2022/01/03 08:07:06;;;;;;;17.62;13.98;;;;;;;10.59;59.95;100936.92;1695046;83;21038;-54
2022/01/03 08:09:33;;;;;;;17.67;13.20;;;;;;;10.62;59.98;100934.25;1702885;83;21058;-54
2022/01/03 08:12:00;;;;;;;19.48;14.63;;;;;;;10.65;59.90;100921.20;1685342;83;21019;-54
2022/01/03 08:14:27;;;;;;;18.40;14.93;;;;;;;10.71;59.72;100919.77;1688692;83;21082;-54
2022/01/03 08:16:53;;;;;;;20.62;16.77;;;;;;;10.73;59.54;100914.09;1692915;83;21085;-54
2022/01/03 08:19:20;;;;;;;21.97;15.23;;;;;;;10.76;59.52;100909.28;1701555;83;21520;-54
2022/01/03 08:21:48;;;;;;;20.25;15.00;;;;;;;10.77;59.37;100913.14;1689948;83;21538;-54
2022/01/03 08:24:17;;;;;;;17.52;13.83;;;;;;;10.79;59.38;100913.97;1681246;83;21074;-54
2022/01/03 08:26:43;;;;;;;16.52;13.80;;;;;;;10.81;59.21;100912.19;1672828;83;21605;-54
2022/01/03 08:29:12;;;;;;;16.05;12.25;;;;;;;10.83;59.01;100910.41;1695082;83;21099;-54
2022/01/03 08:31:39;;;;;;;16.82;12.63;;;;;;;10.84;58.84;100906.91;1707404;83;21068;-54
2022/01/03 08:34:06;;;;;;;15.70;13.03;;;;;;;10.82;58.51;100917.80;1702620;83;21062;-54
2022/01/03 08:36:32;;;;;;;16.00;13.32;;;;;;;10.83;58.48;100933.84;1699254;83;21021;-53
2022/01/03 08:38:58;;;;;;;17.80;13.53;;;;;;;10.82;58.25;100932.11;1702947;83;20994;-55
2022/01/03 08:41:25;;;;;;;15.70;12.40;;;;;;;10.81;58.28;100926.51;1677667;83;21064;-54
2022/01/03 08:43:51;;;;;;;15.98;13.22;;;;;;;10.81;58.26;100920.00;1689087;83;20983;-54
2022/01/03 08:46:19;;;;;;;16.45;13.10;;;;;;;10.82;58.19;100907.84;1682861;83;21061;-54
2022/01/03 08:48:46;;;;;;;16.32;14.23;;;;;;;10.82;58.34;100906.08;1678251;82;21086;-54
2022/01/03 08:51:12;;;;;;;15.95;12.80;;;;;;;10.83;58.35;100894.80;1693070;84;21030;-54
2022/01/03 08:53:39;;;;;;;16.67;13.25;;;;;;;10.86;58.24;100879.56;1690707;83;21008;-54
2022/01/03 08:56:05;;;;;;;17.05;13.60;;;;;;;10.88;58.18;100877.78;1691774;83;21042;-53
2022/01/03 08:58:32;;;;;;;16.00;13.28;;;;;;;10.89;58.13;100887.30;1690638;83;21042;-53
2022/01/03 09:00:58;;;;;;;14.18;12.43;;;;;;;10.91;58.02;100896.80;1700734;83;21579;-54
2022/01/03 09:03:25;;;;;;;15.25;12.88;;;;;;;10.92;57.83;100878.97;1694358;83;21550;-54
2022/01/03 09:05:53;;;;;;;16.57;13.22;;;;;;;10.91;57.85;100877.27;1690264;83;21494;-53
2022/01/03 09:08:22;;;;;;;16.00;13.18;;;;;;;10.92;57.89;100878.97;1689946;83;21039;-54
2022/01/03 09:10:49;;;;;;;15.63;12.65;;;;;;;10.93;57.78;100862.91;1692416;83;21790;-54
2022/01/03 09:13:18;;;;;;;15.60;12.55;;;;;;;10.92;57.79;100855.53;1699699;83;21018;-53
2022/01/03 09:15:46;;;;;;;17.35;13.43;;;;;;;10.94;57.63;100850.32;1689454;83;21125;-54
2022/01/03 09:18:14;;;;;;;15.13;13.15;;;;;;;10.96;57.65;100845.50;1701188;83;21530;-54
2022/01/03 09:20:42;;;;;;;16.27;13.18;;;;;;;10.97;57.57;100836.78;1704127;83;21031;-54
2022/01/03 09:23:14;;;;;;;16.70;13.60;;;;;;;10.99;57.50;100832.83;1677438;83;21046;-53
2022/01/03 09:30:50;;;;;;;15.20;12.78;;;;;;;11.02;57.58;100829.73;1697128;83;21062;-54
2022/01/03 09:33:17;;;;;;;15.00;12.58;;;;;;;11.05;57.50;100832.70;1702121;83;21093;-53
2022/01/03 09:35:44;;;;;;;16.15;13.62;;;;;;;11.05;57.39;100836.16;1694653;82;21023;-54
2022/01/03 09:38:12;;;;;;;15.13;12.47;;;;;;;11.05;57.37;100838.77;1677703;83;21585;-53
2022/01/03 09:40:39;;;;;;;15.75;13.35;;;;;;;11.06;57.37;100835.28;1691059;83;21503;-54
2022/01/03 09:43:10;;;;;;;17.00;13.50;;;;;;;11.09;57.32;100835.20;1696046;83;20990;-53
2022/01/03 09:45:39;;;;;;;15.98;13.58;;;;;;;11.11;57.39;100820.40;1701377;83;21007;-53
2022/01/03 09:48:07;;;;;;;18.35;14.65;;;;;;;11.14;57.42;100822.95;1697385;83;21014;-53
2022/01/03 09:50:34;;;;;;;17.62;13.95;;;;;;;11.16;57.36;100815.95;1678760;84;21577;-53
2022/01/03 09:53:02;;;;;;;14.38;12.88;;;;;;;11.16;57.22;100813.35;1691405;83;21018;-54
2022/01/03 09:55:29;;;;;;;15.65;13.55;;;;;;;11.18;57.12;100812.87;1699595;83;21077;-53
2022/01/03 09:57:56;;;;;;;15.32;13.50;;;;;;;11.19;57.10;100807.22;1694748;82;21121;-53
2022/01/03 10:00:23;;;;;;;16.30;13.30;;;;;;;11.20;56.98;100804.57;1678619;85;21034;-53
2022/01/03 10:02:51;;;;;;;14.68;13.05;;;;;;;11.20;57.06;100805.88;1679611;83;21550;-53
2022/01/03 10:05:18;;;;;;;17.02;13.35;;;;;;;11.20;57.07;100807.17;1694634;83;21523;-53
2022/01/03 10:07:44;;;;;;;17.20;13.08;;;;;;;11.20;56.96;100801.97;1690003;83;21094;-53
2022/01/03 10:10:11;;;;;;;16.52;13.48;;;;;;;11.20;56.99;100801.10;1698211;83;21502;-53
2022/01/03 10:12:38;;;;;;;17.17;13.75;;;;;;;11.19;57.00;100789.82;1702009;83;21000;-54
2022/01/03 10:15:07;;;;;;;17.07;14.18;;;;;;;11.18;57.09;100806.36;1699521;83;21559;-53
2022/01/03 10:17:38;;;;;;;16.93;14.28;;;;;;;11.19;57.05;100815.87;1690544;83;21065;-53
2022/01/03 10:20:06;;;;;;;26.60;19.60;;;;;;;11.18;57.13;100808.96;1623861;86;21024;-53
2022/01/03 10:22:34;;;;;;;20.80;16.25;;;;;;;11.20;57.06;100807.17;1637481;87;21091;-53
2022/01/03 10:25:17;;;;;;;18.90;15.13;;;;;;;11.19;56.99;100804.14;1625182;87;21071;-53
2022/01/03 10:27:56;;;;;;;20.37;16.32;;;;;;;11.17;57.09;100786.39;1577044;88;21160;-53
2022/01/03 10:30:42;;;;;;;18.98;15.45;;;;;;;11.18;57.06;100783.36;1547894;92;21095;-53
2022/01/03 10:33:19;;;;;;;17.92;14.53;;;;;;;11.17;57.18;100781.66;1553976;91;21640;-53
2022/01/03 10:35:51;;;;;;;18.82;15.05;;;;;;;11.18;57.17;100781.61;1559384;91;21465;-53
2022/01/03 10:38:36;;;;;;;21.23;16.93;;;;;;;11.18;57.24;100786.83;1591657;89;21104;-53
2022/01/03 10:41:18;;;;;;;17.87;14.90;;;;;;;11.18;57.23;100789.42;1592234;89;21081;-53
2022/01/03 10:43:54;;;;;;;21.95;17.15;;;;;;;11.19;57.27;100781.17;1573275;91;21601;-54
2022/01/03 10:46:25;;;;;;;18.55;16.02;;;;;;;11.20;57.17;100775.06;1526220;92;21652;-53
2022/01/03 10:48:56;;;;;;;18.27;15.72;;;;;;;11.23;57.25;100764.58;1520025;93;21560;-53
2022/01/03 10:51:27;;;;;;;17.12;15.13;;;;;;;11.24;57.23;100767.14;1521790;92;21064;-54
2022/01/03 10:53:55;;;;;;;21.17;16.77;;;;;;;11.25;57.25;100763.63;1499149;94;21143;-53
2022/01/03 10:56:39;;;;;;;22.00;17.17;;;;;;;11.26;57.21;100761.88;1534413;92;21265;-53
2022/01/03 10:59:22;;;;;;;20.35;16.75;;;;;;;11.25;57.19;100763.63;1383945;102;21133;-53
2022/01/03 11:02:03;;;;;;;21.35;16.60;;;;;;;11.26;57.09;100762.75;1404929;101;21692;-54
2022/01/03 11:13:18;;;;;;;20.30;17.30;;;;;;;11.23;57.31;100753.69;1394642;101;21218;-53
2022/01/03 11:15:57;;;;;;;22.13;17.23;;;;;;;11.23;57.40;100749.78;1391938;101;21680;-53
2022/01/03 11:18:27;;;;;;;19.90;16.20;;;;;;;11.23;57.46;100734.16;1391209;102;21138;-54
2022/01/03 11:21:13;;;;;;;20.40;16.82;;;;;;;11.24;57.45;100730.67;1397526;101;21162;-53
2022/01/03 11:23:52;;;;;;;20.95;17.52;;;;;;;11.24;57.51;100746.30;1426181;98;21121;-53
2022/01/03 11:26:20;;;;;;;22.13;18.02;;;;;;;11.25;57.46;100739.35;1414737;101;21260;-53
2022/01/03 11:28:49;;;;;;;23.05;19.65;;;;;;;11.25;57.47;100745.39;1404075;102;21208;-53
2022/01/03 11:31:17;;;;;;;22.32;17.90;;;;;;;11.25;57.43;100750.60;1415367;99;21191;-53
2022/01/03 11:33:46;;;;;;;34.65;29.15;;;;;;;11.25;57.41;100746.69;1444109;98;21119;-53
2022/01/03 11:36:13;;;;;;;26.60;22.20;;;;;;;11.27;57.28;100757.93;1443940;97;21128;-54
2022/01/03 11:38:40;;;;;;;22.48;18.50;;;;;;;11.26;57.31;100756.23;1471053;96;21656;-53
2022/01/03 11:41:09;;;;;;;21.05;17.92;;;;;;;11.26;57.36;100752.33;1482540;95;21089;-53
2022/01/03 11:43:37;;;;;;;20.62;16.90;;;;;;;11.27;57.26;100754.02;1483921;95;21102;-54
2022/01/03 11:46:04;;;;;;;19.17;17.05;;;;;;;11.27;57.28;100746.68;1487738;94;21281;-53
2022/01/03 11:48:31;;;;;;;20.55;17.23;;;;;;;11.28;57.27;100742.73;1493152;95;21256;-53
2022/01/03 11:51:02;;;;;;;20.00;16.55;;;;;;;11.30;57.21;100743.55;1476542;95;21086;-54
2022/01/03 11:53:30;;;;;;;18.37;16.40;;;;;;;11.30;57.18;100735.73;1488747;94;21126;-53